sensor_id;sensor_type;location;lat;lon;timestamp;pressure;altitude;pressure_sealevel;temperature;humidity
23321;BME280;33376;51.306;4.752;2024-01-15T00:01:53;101498.38;;;2.39;100.00
23321;BME280;33376;51.306;4.752;2024-01-15T00:04:18;101490.53;;;2.39;100.00
23321;BME280;33376;51.306;4.752;2024-01-15T00:06:43;101483.63;;;2.31;100.00
23321;BME280;33376;51.306;4.752;2024-01-15T00:09:09;101477.50;;;2.32;100.00
23321;BME280;33376;51.306;4.752;2024-01-15T00:11:35;101486.16;;;2.38;100.00
23321;BME280;33376;51.306;4.752;2024-01-15T00:14:00;101480.25;;;2.21;100.00
23321;BME280;33376;51.306;4.752;2024-01-15T00:16:25;101491.53;;;2.26;100.00
23321;BME280;33376;51.306;4.752;2024-01-15T00:18:50;101488.97;;;2.19;100.00
23321;BME280;33376;51.306;4.752;2024-01-15T00:21:16;101493.31;;;2.23;100.00
23321;BME280;33376;51.306;4.752;2024-01-15T00:23:44;101497.66;;;2.24;100.00
23321;BME280;33376;51.306;4.752;2024-01-15T00:26:10;101509.09;;;2.14;100.00
23321;BME280;33376;51.306;4.752;2024-01-15T00:28:36;101498.63;;;2.15;100.00
23321;BME280;33376;51.306;4.752;2024-01-15T00:31:01;101500.47;;;2.06;100.00
23321;BME280;33376;51.306;4.752;2024-01-15T00:33:26;101516.84;;;2.24;100.00
23321;BME280;33376;51.306;4.752;2024-01-15T00:35:51;101507.34;;;2.13;100.00
23321;BME280;33376;51.306;4.752;2024-01-15T00:38:17;101518.63;;;2.18;100.00
23321;BME280;33376;51.306;4.752;2024-01-15T00:40:42;101509.09;;;2.14;100.00
23321;BME280;33376;51.306;4.752;2024-01-15T00:43:07;101522.09;;;2.23;100.00
23321;BME280;33376;51.306;4.752;2024-01-15T00:45:32;101514.88;;;2.43;100.00
23321;BME280;33376;51.306;4.752;2024-01-15T00:47:58;101509.38;;;2.65;100.00
23321;BME280;33376;51.306;4.752;2024-01-15T00:50:24;101502.31;;;2.73;100.00
23321;BME280;33376;51.306;4.752;2024-01-15T00:52:50;101482.19;;;2.78;100.00
23321;BME280;33376;51.306;4.752;2024-01-15T00:55:15;101473.47;;;2.76;100.00
23321;BME280;33376;51.306;4.752;2024-01-15T00:57:40;101457.75;;;2.78;100.00
23321;BME280;33376;51.306;4.752;2024-01-15T01:00:06;101427.84;;;2.27;100.00
23321;BME280;33376;51.306;4.752;2024-01-15T01:02:32;101447.22;;;2.11;100.00
23321;BME280;33376;51.306;4.752;2024-01-15T01:04:57;101456.78;;;2.12;100.00
23321;BME280;33376;51.306;4.752;2024-01-15T01:07:23;101475.03;;;2.20;100.00
23321;BME280;33376;51.306;4.752;2024-01-15T01:09:48;101488.16;;;2.12;100.00
23321;BME280;33376;51.306;4.752;2024-01-15T01:12:14;101482.06;;;2.15;100.00
23321;BME280;33376;51.306;4.752;2024-01-15T01:14:39;101487.25;;;2.18;100.00
23321;BME280;33376;51.306;4.752;2024-01-15T01:17:04;101488.06;;;2.24;100.00
23321;BME280;33376;51.306;4.752;2024-01-15T01:19:30;101487.59;;;2.62;100.00
23321;BME280;33376;51.306;4.752;2024-01-15T01:21:55;101486.34;;;2.19;100.00
23321;BME280;33376;51.306;4.752;2024-01-15T01:24:20;101472.44;;;2.18;100.00
23321;BME280;33376;51.306;4.752;2024-01-15T01:26:46;101466.44;;;2.07;100.00
23321;BME280;33376;51.306;4.752;2024-01-15T01:29:11;101474.13;;;2.22;100.00
23321;BME280;33376;51.306;4.752;2024-01-15T01:31:41;101479.41;;;2.16;100.00
23321;BME280;33376;51.306;4.752;2024-01-15T01:34:07;101466.41;;;2.12;100.00
23321;BME280;33376;51.306;4.752;2024-01-15T01:36:32;101473.50;;;1.99;100.00
23321;BME280;33376;51.306;4.752;2024-01-15T01:38:57;101482.19;;;2.00;100.00
23321;BME280;33376;51.306;4.752;2024-01-15T01:41:23;101486.59;;;1.93;100.00
23321;BME280;33376;51.306;4.752;2024-01-15T01:43:49;101490.03;;;2.01;100.00
23321;BME280;33376;51.306;4.752;2024-01-15T01:46:14;101502.94;;;2.18;100.00
23321;BME280;33376;51.306;4.752;2024-01-15T01:48:40;101501.31;;;2.06;100.00
23321;BME280;33376;51.306;4.752;2024-01-15T01:51:05;101498.72;;;2.03;100.00
23321;BME280;33376;51.306;4.752;2024-01-15T01:53:32;101499.63;;;2.01;100.00
23321;BME280;33376;51.306;4.752;2024-01-15T01:55:57;101497.91;;;1.98;100.00
23321;BME280;33376;51.306;4.752;2024-01-15T01:58:23;101514.44;;;2.00;100.00
23321;BME280;33376;51.306;4.752;2024-01-15T02:00:49;101509.22;;;2.00;100.00
23321;BME280;33376;51.306;4.752;2024-01-15T02:03:14;101506.63;;;1.97;100.00
23321;BME280;33376;51.306;4.752;2024-01-15T02:05:40;101511.88;;;1.97;100.00
23321;BME280;33376;51.306;4.752;2024-01-15T02:08:08;101510.91;;;2.03;100.00
23321;BME280;33376;51.306;4.752;2024-01-15T02:10:33;101509.28;;;1.94;100.00
23321;BME280;33376;51.306;4.752;2024-01-15T02:12:58;101511.88;;;1.96;100.00
23321;BME280;33376;51.306;4.752;2024-01-15T02:15:23;101516.16;;;2.01;100.00
23321;BME280;33376;51.306;4.752;2024-01-15T02:17:59;101518.84;;;1.95;100.00
23321;BME280;33376;51.306;4.752;2024-01-15T02:20:25;101501.41;;;1.96;100.00
23321;BME280;33376;51.306;4.752;2024-01-15T02:22:50;101501.41;;;1.97;100.00
23321;BME280;33376;51.306;4.752;2024-01-15T02:25:15;101501.44;;;1.94;100.00
23321;BME280;33376;51.306;4.752;2024-01-15T02:27:41;101501.47;;;1.91;100.00
23321;BME280;33376;51.306;4.752;2024-01-15T02:30:07;101509.28;;;1.94;100.00
23321;BME280;33376;51.306;4.752;2024-01-15T02:32:33;101509.34;;;1.88;100.00
23321;BME280;33376;51.306;4.752;2024-01-15T02:34:58;101518.81;;;2.00;100.00
23321;BME280;33376;51.306;4.752;2024-01-15T02:37:23;101515.44;;;1.86;100.00
23321;BME280;33376;51.306;4.752;2024-01-15T02:39:49;101517.22;;;1.82;100.00
23321;BME280;33376;51.306;4.752;2024-01-15T02:42:14;101514.66;;;1.75;100.00
23321;BME280;33376;51.306;4.752;2024-01-15T02:44:39;101519.00;;;1.76;100.00
23321;BME280;33376;51.306;4.752;2024-01-15T02:47:04;101529.09;;;2.19;100.00
23321;BME280;33376;51.306;4.752;2024-01-15T02:49:30;101514.06;;;2.39;100.00
23321;BME280;33376;51.306;4.752;2024-01-15T02:51:57;101493.41;;;2.14;100.00
23321;BME280;33376;51.306;4.752;2024-01-15T02:54:22;101490.91;;;2.00;100.00
23321;BME280;33376;51.306;4.752;2024-01-15T02:56:47;101492.59;;;2.09;100.00
23321;BME280;33376;51.306;4.752;2024-01-15T02:59:13;101490.88;;;2.05;100.00
23321;BME280;33376;51.306;4.752;2024-01-15T03:01:38;101487.38;;;2.03;100.00
23321;BME280;33376;51.306;4.752;2024-01-15T03:04:03;101485.50;;;2.20;100.00
23321;BME280;33376;51.306;4.752;2024-01-15T03:06:29;101487.78;;;2.48;100.00
23321;BME280;33376;51.306;4.752;2024-01-15T03:08:54;101478.50;;;2.22;100.00
23321;BME280;33376;51.306;4.752;2024-01-15T03:11:19;101481.91;;;2.28;100.00
23321;BME280;33376;51.306;4.752;2024-01-15T03:13:44;101482.97;;;2.08;100.00
23321;BME280;33376;51.306;4.752;2024-01-15T03:16:10;101480.22;;;2.24;100.00
23321;BME280;33376;51.306;4.752;2024-01-15T03:18:35;101471.56;;;2.16;100.00
23321;BME280;33376;51.306;4.752;2024-01-15T03:21:00;101468.25;;;2.01;100.00
23321;BME280;33376;51.306;4.752;2024-01-15T03:23:26;101458.78;;;1.89;100.00
23321;BME280;33376;51.306;4.752;2024-01-15T03:25:51;101466.63;;;1.89;100.00
23321;BME280;33376;51.306;4.752;2024-01-15T03:28:17;101463.75;;;2.13;100.00
23321;BME280;33376;51.306;4.752;2024-01-15T03:30:42;101458.63;;;2.04;100.00
23321;BME280;33376;51.306;4.752;2024-01-15T03:33:07;101459.47;;;2.06;100.00
23321;BME280;33376;51.306;4.752;2024-01-15T03:35:32;101450.63;;;2.18;100.00
23321;BME280;33376;51.306;4.752;2024-01-15T03:37:58;101453.91;;;2.35;100.00
23321;BME280;33376;51.306;4.752;2024-01-15T03:40:23;101444.69;;;2.02;100.00
23321;BME280;33376;51.306;4.752;2024-01-15T03:42:48;101437.59;;;2.13;100.00
23321;BME280;33376;51.306;4.752;2024-01-15T03:45:13;101429.94;;;1.95;100.00
23321;BME280;33376;51.306;4.752;2024-01-15T03:47:39;101436.09;;;1.91;100.00
23321;BME280;33376;51.306;4.752;2024-01-15T03:50:05;101429.09;;;1.92;100.00
23321;BME280;33376;51.306;4.752;2024-01-15T03:52:30;101428.25;;;1.91;100.00
23321;BME280;33376;51.306;4.752;2024-01-15T03:54:55;101436.09;;;1.91;100.00
23321;BME280;33376;51.306;4.752;2024-01-15T03:57:21;101426.53;;;1.89;100.00
23321;BME280;33376;51.306;4.752;2024-01-15T03:59:46;101420.44;;;1.88;100.00
23321;BME280;33376;51.306;4.752;2024-01-15T04:02:12;101420.41;;;1.91;100.00
23321;BME280;33376;51.306;4.752;2024-01-15T04:04:40;101421.19;;;2.01;100.00
23321;BME280;33376;51.306;4.752;2024-01-15T04:07:05;101417.00;;;1.83;100.00
23321;BME280;33376;51.306;4.752;2024-01-15T04:09:31;101424.84;;;1.83;100.00
23321;BME280;33376;51.306;4.752;2024-01-15T04:11:56;101445.84;;;1.74;100.00
23321;BME280;33376;51.306;4.752;2024-01-15T04:14:21;101436.09;;;1.91;100.00
23321;BME280;33376;51.306;4.752;2024-01-15T04:16:46;101443.81;;;2.02;100.00
23321;BME280;33376;51.306;4.752;2024-01-15T04:19:12;101456.88;;;2.03;100.00
23321;BME280;33376;51.306;4.752;2024-01-15T04:21:37;101457.38;;;2.37;100.00
23321;BME280;33376;51.306;4.752;2024-01-15T04:24:02;101440.91;;;2.29;100.00
23321;BME280;33376;51.306;4.752;2024-01-15T04:26:27;101424.25;;;2.37;100.00
23321;BME280;33376;51.306;4.752;2024-01-15T04:28:53;101427.72;;;2.38;100.00
23321;BME280;33376;51.306;4.752;2024-01-15T04:31:23;101413.88;;;2.28;100.00
23321;BME280;33376;51.306;4.752;2024-01-15T04:33:49;101399.28;;;2.09;100.00
23321;BME280;33376;51.306;4.752;2024-01-15T04:36:19;101390.50;;;2.16;100.00
23321;BME280;33376;51.306;4.752;2024-01-15T04:38:55;101377.50;;;2.10;100.00
23321;BME280;33376;51.306;4.752;2024-01-15T04:41:22;101369.84;;;1.92;100.00
23321;BME280;33376;51.306;4.752;2024-01-15T04:43:48;101358.47;;;1.98;100.00
23321;BME280;33376;51.306;4.752;2024-01-15T04:46:13;101368.84;;;2.04;100.00
23321;BME280;33376;51.306;4.752;2024-01-15T04:48:38;101366.75;;;2.33;100.00
23321;BME280;33376;51.306;4.752;2024-01-15T04:51:04;101368.63;;;2.22;100.00
23321;BME280;33376;51.306;4.752;2024-01-15T04:53:30;101354.59;;;2.27;100.00
23321;BME280;33376;51.306;4.752;2024-01-15T04:55:55;101356.00;;;2.51;100.00
23321;BME280;33376;51.306;4.752;2024-01-15T04:58:21;101344.94;;;2.32;100.00
23321;BME280;33376;51.306;4.752;2024-01-15T05:00:49;101344.25;;;2.20;100.00
23321;BME280;33376;51.306;4.752;2024-01-15T05:03:15;101343.50;;;2.10;100.00
23321;BME280;33376;51.306;4.752;2024-01-15T05:05:40;101353.13;;;2.05;100.00
23321;BME280;33376;51.306;4.752;2024-01-15T05:08:06;101360.91;;;2.10;100.00
23321;BME280;33376;51.306;4.752;2024-01-15T05:10:31;101366.00;;;2.23;100.00
23321;BME280;33376;51.306;4.752;2024-01-15T05:12:56;101379.78;;;2.36;100.00
23321;BME280;33376;51.306;4.752;2024-01-15T05:15:22;101379.88;;;2.28;100.00
23321;BME280;33376;51.306;4.752;2024-01-15T05:17:47;101374.91;;;2.09;100.00
23321;BME280;33376;51.306;4.752;2024-01-15T05:20:12;101381.72;;;2.22;100.00
23321;BME280;33376;51.306;4.752;2024-01-15T05:22:38;101392.16;;;2.20;100.00
23321;BME280;33376;51.306;4.752;2024-01-15T05:25:03;101398.22;;;2.25;100.00
23321;BME280;33376;51.306;4.752;2024-01-15T05:27:28;101392.16;;;2.20;100.00
23321;BME280;33376;51.306;4.752;2024-01-15T05:29:54;101387.13;;;2.07;100.00
23321;BME280;33376;51.306;4.752;2024-01-15T05:32:19;101393.09;;;2.16;100.00
23321;BME280;33376;51.306;4.752;2024-01-15T05:34:44;101383.63;;;2.06;100.00
23321;BME280;33376;51.306;4.752;2024-01-15T05:37:09;101386.19;;;2.09;100.00
23321;BME280;33376;51.306;4.752;2024-01-15T05:39:35;101382.91;;;1.94;100.00
23321;BME280;33376;51.306;4.752;2024-01-15T05:42:00;101383.06;;;1.77;100.00
23321;BME280;33376;51.306;4.752;2024-01-15T05:44:25;101375.22;;;1.77;100.00
23321;BME280;33376;51.306;4.752;2024-01-15T05:46:53;101375.31;;;1.70;100.00
23321;BME280;33376;51.306;4.752;2024-01-15T05:49:19;101373.63;;;1.67;100.00
23321;BME280;33376;51.306;4.752;2024-01-15T05:51:44;101379.69;;;1.66;100.00
23321;BME280;33376;51.306;4.752;2024-01-15T05:54:09;101375.34;;;1.68;100.00
23321;BME280;33376;51.306;4.752;2024-01-15T05:56:34;101365.84;;;1.61;100.00
23321;BME280;33376;51.306;4.752;2024-01-15T05:59:00;101366.66;;;1.63;100.00
23321;BME280;33376;51.306;4.752;2024-01-15T06:01:25;101372.72;;;1.68;100.00
23321;BME280;33376;51.306;4.752;2024-01-15T06:03:52;101383.09;;;1.79;100.00
23321;BME280;33376;51.306;4.752;2024-01-15T06:06:17;101382.28;;;1.72;100.00
23321;BME280;33376;51.306;4.752;2024-01-15T06:08:42;101389.88;;;1.96;100.00
23321;BME280;33376;51.306;4.752;2024-01-15T06:11:07;101393.81;;;2.29;100.00
23321;BME280;33376;51.306;4.752;2024-01-15T06:13:33;101386.16;;;2.12;100.00
23321;BME280;33376;51.306;4.752;2024-01-15T06:15:58;101383.19;;;2.42;100.00
23321;BME280;33376;51.306;4.752;2024-01-15T06:18:23;101367.22;;;1.94;100.00
23321;BME280;33376;51.306;4.752;2024-01-15T06:20:49;101362.16;;;1.77;100.00
23321;BME280;33376;51.306;4.752;2024-01-15T06:23:14;101373.63;;;1.66;100.00
23321;BME280;33376;51.306;4.752;2024-01-15T06:25:39;101382.34;;;1.63;100.00
23321;BME280;33376;51.306;4.752;2024-01-15T06:28:04;101384.94;;;1.65;100.00
23321;BME280;33376;51.306;4.752;2024-01-15T06:30:30;101385.91;;;1.56;100.00
23321;BME280;33376;51.306;4.752;2024-01-15T06:32:55;101390.31;;;1.51;100.00
23321;BME280;33376;51.306;4.752;2024-01-15T06:35:20;101410.34;;;1.49;100.00
23321;BME280;33376;51.306;4.752;2024-01-15T06:37:46;101423.50;;;1.41;100.00
23321;BME280;33376;51.306;4.752;2024-01-15T06:40:11;101429.59;;;1.39;100.00
23321;BME280;33376;51.306;4.752;2024-01-15T06:42:36;101436.53;;;1.44;100.00
23321;BME280;33376;51.306;4.752;2024-01-15T06:45:02;101436.59;;;1.37;100.00
23321;BME280;33376;51.306;4.752;2024-01-15T06:47:27;101447.88;;;1.42;100.00
23321;BME280;33376;51.306;4.752;2024-01-15T06:49:52;101457.47;;;1.40;100.00
23321;BME280;33376;51.306;4.752;2024-01-15T06:52:18;101462.69;;;1.41;100.00
23321;BME280;33376;51.306;4.752;2024-01-15T06:54:43;101471.34;;;1.49;100.00
23321;BME280;33376;51.306;4.752;2024-01-15T06:57:08;101474.00;;;1.40;100.00
23321;BME280;33376;51.306;4.752;2024-01-15T06:59:34;101486.16;;;1.46;100.00
23321;BME280;33376;51.306;4.752;2024-01-15T07:02:00;101489.59;;;1.51;100.00
23321;BME280;33376;51.306;4.752;2024-01-15T07:04:25;101498.28;;;1.55;100.00
23321;BME280;33376;51.306;4.752;2024-01-15T07:06:51;101509.63;;;1.52;100.00
23321;BME280;33376;51.306;4.752;2024-01-15T07:09:16;101501.75;;;1.55;100.00
23321;BME280;33376;51.306;4.752;2024-01-15T07:11:45;101501.72;;;1.61;100.00
23321;BME280;33376;51.306;4.752;2024-01-15T07:14:11;101499.03;;;1.72;100.00
23321;BME280;33376;51.306;4.752;2024-01-15T07:16:36;101498.28;;;1.56;100.00
23321;BME280;33376;51.306;4.752;2024-01-15T07:19:02;101492.25;;;1.48;100.00
23321;BME280;33376;51.306;4.752;2024-01-15T07:21:27;101485.25;;;1.50;100.00
23321;BME280;33376;51.306;4.752;2024-01-15T07:23:52;101477.44;;;1.44;100.00
23321;BME280;33376;51.306;4.752;2024-01-15T07:26:17;101468.66;;;1.56;100.00
23321;BME280;33376;51.306;4.752;2024-01-15T07:28:43;101481.69;;;1.60;100.00
23321;BME280;33376;51.306;4.752;2024-01-15T07:31:08;101470.38;;;1.58;100.00
23321;BME280;33376;51.306;4.752;2024-01-15T07:33:33;101467.78;;;1.55;100.00
23321;BME280;33376;51.306;4.752;2024-01-15T07:35:59;101463.50;;;1.49;100.00
23321;BME280;33376;51.306;4.752;2024-01-15T07:38:24;101457.38;;;1.49;100.00
23321;BME280;33376;51.306;4.752;2024-01-15T07:40:49;101447.72;;;1.59;100.00
23321;BME280;33376;51.306;4.752;2024-01-15T07:43:15;101451.22;;;1.59;100.00
23321;BME280;33376;51.306;4.752;2024-01-15T07:45:40;101454.69;;;1.61;100.00
23321;BME280;33376;51.306;4.752;2024-01-15T07:48:06;101450.00;;;1.93;100.00
23321;BME280;33376;51.306;4.752;2024-01-15T07:50:31;101448.59;;;1.59;100.00
23321;BME280;33376;51.306;4.752;2024-01-15T07:52:56;101443.50;;;1.42;100.00
23321;BME280;33376;51.306;4.752;2024-01-15T07:55:21;101449.66;;;1.38;100.00
23321;BME280;33376;51.306;4.752;2024-01-15T07:57:47;101454.88;;;1.37;100.00
23321;BME280;33376;51.306;4.752;2024-01-15T08:00:12;101476.59;;;1.45;100.00
23321;BME280;33376;51.306;4.752;2024-01-15T08:02:38;101469.63;;;1.42;100.00
23321;BME280;33376;51.306;4.752;2024-01-15T08:05:03;101486.22;;;1.40;100.00
23321;BME280;33376;51.306;4.752;2024-01-15T08:07:29;101473.97;;;1.46;100.00
23321;BME280;33376;51.306;4.752;2024-01-15T08:09:54;101470.44;;;1.49;100.00
23321;BME280;33376;51.306;4.752;2024-01-15T08:12:19;101467.78;;;1.53;100.00
23321;BME280;33376;51.306;4.752;2024-01-15T08:14:45;101473.00;;;1.60;100.00
23321;BME280;33376;51.306;4.752;2024-01-15T08:17:10;101477.38;;;1.58;100.00
23321;BME280;33376;51.306;4.752;2024-01-15T08:19:36;101478.19;;;1.63;100.00
23321;BME280;33376;51.306;4.752;2024-01-15T08:22:01;101480.81;;;1.63;100.00
23321;BME280;33376;51.306;4.752;2024-01-15T08:24:26;101476.41;;;1.65;100.00
23321;BME280;33376;51.306;4.752;2024-01-15T08:26:52;101469.41;;;1.68;100.00
23321;BME280;33376;51.306;4.752;2024-01-15T08:29:17;101474.69;;;1.65;100.00
23321;BME280;33376;51.306;4.752;2024-01-15T08:31:43;101478.03;;;1.78;100.00
23321;BME280;33376;51.306;4.752;2024-01-15T08:34:09;101473.25;;;2.20;100.00
23321;BME280;33376;51.306;4.752;2024-01-15T08:36:34;101469.00;;;2.13;100.00
23321;BME280;33376;51.306;4.752;2024-01-15T08:39:01;101461.31;;;1.95;100.00
23321;BME280;33376;51.306;4.752;2024-01-15T08:41:26;101452.44;;;2.11;100.00
23321;BME280;33376;51.306;4.752;2024-01-15T08:43:51;101448.13;;;2.07;100.00
23321;BME280;33376;51.306;4.752;2024-01-15T08:46:18;101427.41;;;1.89;100.00
23321;BME280;33376;51.306;4.752;2024-01-15T08:48:43;101421.38;;;1.83;100.00
23321;BME280;33376;51.306;4.752;2024-01-15T08:51:08;101420.44;;;1.88;100.00
23321;BME280;33376;51.306;4.752;2024-01-15T08:53:33;101416.13;;;1.84;100.00
23321;BME280;33376;51.306;4.752;2024-01-15T08:55:59;101416.16;;;1.81;100.00
23321;BME280;33376;51.306;4.752;2024-01-15T08:58:24;101422.22;;;1.86;100.00
23321;BME280;33376;51.306;4.752;2024-01-15T09:00:50;101413.47;;;1.87;100.00
23321;BME280;33376;51.306;4.752;2024-01-15T09:03:16;101423.19;;;1.73;100.00
23321;BME280;33376;51.306;4.752;2024-01-15T09:05:41;101414.56;;;1.67;100.00
23321;BME280;33376;51.306;4.752;2024-01-15T09:08:06;101423.31;;;1.64;100.00
23321;BME280;33376;51.306;4.752;2024-01-15T09:10:32;101425.97;;;1.57;100.00
23321;BME280;33376;51.306;4.752;2024-01-15T09:12:57;101432.97;;;1.56;100.00
23321;BME280;33376;51.306;4.752;2024-01-15T09:15:22;101431.97;;;1.65;100.00
23321;BME280;33376;51.306;4.752;2024-01-15T09:17:48;101436.28;;;1.72;100.00
23321;BME280;33376;51.306;4.752;2024-01-15T09:20:13;101445.81;;;1.80;100.00
23321;BME280;33376;51.306;4.752;2024-01-15T09:22:39;101438.72;;;1.91;100.00
23321;BME280;33376;51.306;4.752;2024-01-15T09:25:07;101446.59;;;1.90;100.00
23321;BME280;33376;51.306;4.752;2024-01-15T09:27:32;101426.66;;;1.78;100.00
23321;BME280;33376;51.306;4.752;2024-01-15T09:29:57;101434.53;;;1.75;100.00
23321;BME280;33376;51.306;4.752;2024-01-15T09:32:23;101429.22;;;1.81;100.00
23321;BME280;33376;51.306;4.752;2024-01-15T09:34:48;101437.84;;;1.89;100.00
23321;BME280;33376;51.306;4.752;2024-01-15T09:37:14;101431.72;;;1.92;100.00
23321;BME280;33376;51.306;4.752;2024-01-15T09:39:39;101442.06;;;2.05;100.00
23321;BME280;33376;51.306;4.752;2024-01-15T09:42:04;101440.97;;;2.24;100.00
23321;BME280;33376;51.306;4.752;2024-01-15T09:44:33;101430.09;;;2.57;100.00
23321;BME280;33376;51.306;4.752;2024-01-15T09:46:58;101427.09;;;2.84;100.00
23321;BME280;33376;51.306;4.752;2024-01-15T09:49:23;101427.88;;;2.91;100.00
23321;BME280;33376;51.306;4.752;2024-01-15T09:51:49;101419.00;;;3.03;100.00
23321;BME280;33376;51.306;4.752;2024-01-15T09:54:15;101410.94;;;3.15;100.00
23321;BME280;33376;51.306;4.752;2024-01-15T09:56:42;101408.38;;;3.10;100.00
23321;BME280;33376;51.306;4.752;2024-01-15T09:59:10;101397.13;;;3.03;100.00
23321;BME280;33376;51.306;4.752;2024-01-15T10:01:36;101406.78;;;3.03;100.00
23321;BME280;33376;51.306;4.752;2024-01-15T10:04:03;101388.69;;;2.85;100.00
23321;BME280;33376;51.306;4.752;2024-01-15T10:06:28;101384.38;;;2.84;100.00
23321;BME280;33376;51.306;4.752;2024-01-15T10:08:54;101383.06;;;2.51;100.00
23321;BME280;33376;51.306;4.752;2024-01-15T10:11:23;101383.88;;;1.87;100.00
23321;BME280;33376;51.306;4.752;2024-01-15T10:13:48;101431.47;;;2.14;100.00
23321;BME280;33376;51.306;4.752;2024-01-15T10:16:18;101443.72;;;2.09;100.00
23321;BME280;33376;51.306;4.752;2024-01-15T10:18:43;101443.63;;;2.21;100.00
23321;BME280;33376;51.306;4.752;2024-01-15T10:21:08;101444.66;;;2.07;100.00
23321;BME280;33376;51.306;4.752;2024-01-15T10:23:34;101453.31;;;2.13;100.00
23321;BME280;33376;51.306;4.752;2024-01-15T10:25:59;101445.25;;;2.33;100.00
23321;BME280;33376;51.306;4.752;2024-01-15T10:28:27;101449.41;;;2.49;100.00
23321;BME280;33376;51.306;4.752;2024-01-15T10:30:56;101456.81;;;2.83;100.00
23321;BME280;33376;51.306;4.752;2024-01-15T10:33:22;101465.44;;;2.90;100.00
23321;BME280;33376;51.306;4.752;2024-01-15T10:35:51;101444.47;;;2.91;100.00
23321;BME280;33376;51.306;4.752;2024-01-15T10:38:18;101446.38;;;2.80;100.00
23321;BME280;33376;51.306;4.752;2024-01-15T10:40:47;101435.22;;;2.65;100.00
23321;BME280;33376;51.306;4.752;2024-01-15T10:43:12;101437.72;;;2.74;100.00
23321;BME280;33376;51.306;4.752;2024-01-15T10:45:37;101432.16;;;2.98;100.00
23321;BME280;33376;51.306;4.752;2024-01-15T10:48:03;101424.59;;;2.77;100.00
23321;BME280;33376;51.306;4.752;2024-01-15T10:50:28;101428.97;;;2.76;100.00
23321;BME280;33376;51.306;4.752;2024-01-15T10:52:54;101434.09;;;2.82;100.00
23321;BME280;33376;51.306;4.752;2024-01-15T10:55:20;101429.75;;;2.81;100.00
23321;BME280;33376;51.306;4.752;2024-01-15T10:57:46;101426.00;;;3.00;100.00
23321;BME280;33376;51.306;4.752;2024-01-15T11:00:13;101424.38;;;2.92;100.00
23321;BME280;33376;51.306;4.752;2024-01-15T11:02:40;101410.53;;;2.85;100.00
23321;BME280;33376;51.306;4.752;2024-01-15T11:05:05;101423.75;;;2.75;100.00
23321;BME280;33376;51.306;4.752;2024-01-15T11:07:31;101422.22;;;2.59;100.00
23321;BME280;33376;51.306;4.752;2024-01-15T11:09:56;101416.53;;;2.24;100.00
23321;BME280;33376;51.306;4.752;2024-01-15T11:12:24;101408.91;;;2.07;100.00
23321;BME280;33376;51.306;4.752;2024-01-15T11:14:49;101411.56;;;2.03;100.00
23321;BME280;33376;51.306;4.752;2024-01-15T11:17:15;101428.88;;;2.14;100.00
23321;BME280;33376;51.306;4.752;2024-01-15T11:22:07;101457.56;;;2.23;100.00
23321;BME280;33376;51.306;4.752;2024-01-15T11:24:34;101456.47;;;2.41;100.00
23321;BME280;33376;51.306;4.752;2024-01-15T11:27:00;101466.19;;;2.30;100.00
23321;BME280;33376;51.306;4.752;2024-01-15T11:34:21;101448.44;;;2.56;100.00
23321;BME280;33376;51.306;4.752;2024-01-15T11:37:06;101452.44;;;2.84;100.00
23321;BME280;33376;51.306;4.752;2024-01-15T11:42:00;101445.47;;;2.81;100.00
23321;BME280;33376;51.306;4.752;2024-01-15T11:44:26;101430.84;;;2.65;100.00
23321;BME280;33376;51.306;4.752;2024-01-15T11:46:57;101435.97;;;2.74;100.00
23321;BME280;33376;51.306;4.752;2024-01-15T11:49:50;101441.97;;;2.81;100.00
23321;BME280;33376;51.306;4.752;2024-01-15T11:52:08;101453.00;;;3.06;100.00
23321;BME280;33376;51.306;4.752;2024-01-15T11:54:36;101448.13;;;3.38;100.00
23321;BME280;33376;51.306;4.752;2024-01-15T11:57:04;101444.97;;;3.71;100.00
23321;BME280;33376;51.306;4.752;2024-01-15T11:59:31;101429.66;;;3.95;100.00
23321;BME280;33376;51.306;4.752;2024-01-15T12:01:57;101399.16;;;3.90;100.00
23321;BME280;33376;51.306;4.752;2024-01-15T12:04:22;101368.38;;;3.52;100.00
23321;BME280;33376;51.306;4.752;2024-01-15T12:06:47;101363.03;;;3.07;100.00
23321;BME280;33376;51.306;4.752;2024-01-15T12:09:13;101347.78;;;2.76;100.00
23321;BME280;33376;51.306;4.752;2024-01-15T12:11:38;101358.34;;;2.72;100.00
23321;BME280;33376;51.306;4.752;2024-01-15T12:14:07;101377.06;;;2.43;100.00
23321;BME280;33376;51.306;4.752;2024-01-15T12:16:33;101385.84;;;2.41;100.00
23321;BME280;33376;51.306;4.752;2024-01-15T12:18:59;101392.16;;;2.20;100.00
23321;BME280;33376;51.306;4.752;2024-01-15T12:21:26;101405.13;;;2.32;100.00
23321;BME280;33376;51.306;4.752;2024-01-15T12:23:51;101407.75;;;2.31;100.00
23321;BME280;33376;51.306;4.752;2024-01-15T12:26:17;101409.91;;;2.65;100.00
23321;BME280;33376;51.306;4.752;2024-01-15T12:28:43;101414.47;;;3.12;100.00
23321;BME280;33376;51.306;4.752;2024-01-15T12:31:08;101393.06;;;3.39;100.00
23321;BME280;33376;51.306;4.752;2024-01-15T12:33:33;101379.66;;;3.57;100.00
23321;BME280;33376;51.306;4.752;2024-01-15T12:35:59;101347.78;;;3.31;100.00
23321;BME280;33376;51.306;4.752;2024-01-15T12:38:24;101338.44;;;3.17;100.00
23321;BME280;33376;51.306;4.752;2024-01-15T12:40:49;101332.28;;;3.19;100.00
23321;BME280;33376;51.306;4.752;2024-01-15T12:43:14;101328.06;;;3.11;100.00
23321;BME280;33376;51.306;4.752;2024-01-15T12:45:40;101336.00;;;3.06;100.00
23321;BME280;33376;51.306;4.752;2024-01-15T12:48:05;101347.25;;;3.10;100.00
23321;BME280;33376;51.306;4.752;2024-01-15T12:50:31;101363.25;;;3.45;100.00
23321;BME280;33376;51.306;4.752;2024-01-15T12:52:58;101350.28;;;3.37;100.00